Time;durP1;ratioP1;P1;durP2;ratioP2;P2;SDS_P1;SDS_P2;PMS_P1;PMS_P2;Temp;Humidity;BMP_temperature;BMP_pressure;BME280_temperature;BME280_humidity;BME280_pressure;Samples;Min_cycle;Max_cycle;Signal;HPM_P1;HPM_P2
2023/04/03 00:01:16;;;;;;;3.97;2.08;;;8.80;53.20;;;;;;5022516;28;20498;-76
2023/04/03 00:03:43;;;;;;;5.10;2.75;;;8.80;52.70;;;;;;5020984;28;20029;-77
2023/04/03 00:06:10;;;;;;;3.22;2.30;;;8.80;52.70;;;;;;5019170;28;20145;-77
2023/04/03 00:08:37;;;;;;;3.53;2.00;;;8.80;52.70;;;;;;5013599;28;20128;-78
2023/04/03 00:11:04;;;;;;;4.95;2.80;;;8.70;52.50;;;;;;5008948;28;20151;-78
2023/04/03 00:13:31;;;;;;;3.25;2.40;;;8.70;52.50;;;;;;5014685;28;20030;-78
2023/04/03 00:15:57;;;;;;;5.68;2.35;;;8.70;52.60;;;;;;5017020;28;20527;-77
2023/04/03 00:18:23;;;;;;;4.35;2.47;;;8.70;52.70;;;;;;5014918;28;20109;-77
2023/04/03 00:20:49;;;;;;;4.95;2.45;;;8.60;52.50;;;;;;5012661;28;20026;-78
2023/04/03 00:23:16;;;;;;;7.30;2.50;;;8.60;52.50;;;;;;5018201;28;20159;-78
2023/04/03 00:25:42;;;;;;;4.20;2.40;;;8.60;52.60;;;;;;5009796;28;20042;-77
2023/04/03 00:28:09;;;;;;;3.42;2.10;;;8.50;52.50;;;;;;5014039;28;20585;-78
2023/04/03 00:30:35;;;;;;;6.47;3.17;;;8.50;52.60;;;;;;5018137;28;20037;-77
2023/04/03 00:33:01;;;;;;;3.47;2.08;;;8.50;52.60;;;;;;5005013;28;20116;-78
2023/04/03 00:35:28;;;;;;;5.18;2.83;;;8.40;52.40;;;;;;5018685;28;20060;-77
2023/04/03 00:37:56;;;;;;;3.75;2.60;;;8.40;52.50;;;;;;5018520;28;20041;-77
2023/04/03 00:40:24;;;;;;;4.22;2.40;;;8.40;52.60;;;;;;4993644;28;20409;-76
2023/04/03 00:42:56;;;;;;;5.10;2.95;;;8.40;52.60;;;;;;5003020;28;20056;-77
2023/04/03 00:45:31;;;;;;;3.30;2.28;;;8.30;52.50;;;;;;5018203;28;20469;-76
2023/04/03 00:47:59;;;;;;;6.10;2.30;;;8.40;52.70;;;;;;5017233;28;20224;-75
2023/04/03 00:50:28;;;;;;;4.43;2.08;;;8.30;52.50;;;;;;5013320;28;20105;-75
2023/04/03 00:52:55;;;;;;;4.60;2.35;;;8.30;52.60;;;;;;5006933;28;20033;-76
2023/04/03 00:55:21;;;;;;;6.57;2.60;;;8.30;52.60;;;;;;5013895;28;20076;-77
2023/04/03 00:57:48;;;;;;;4.75;2.65;;;8.30;52.60;;;;;;5016064;28;20223;-78
2023/04/03 01:00:19;;;;;;;3.53;2.50;;;8.20;52.50;;;;;;5012882;28;20036;-77
2023/04/03 01:02:45;;;;;;;5.05;2.10;;;8.20;52.50;;;;;;5020946;28;20494;-77
2023/04/03 01:05:17;;;;;;;6.90;2.90;;;8.20;52.50;;;;;;5019176;28;20412;-77
2023/04/03 01:07:44;;;;;;;5.82;2.42;;;8.20;52.60;;;;;;5004767;28;20526;-78
2023/04/03 01:10:14;;;;;;;6.55;2.88;;;8.20;52.60;;;;;;5012841;28;20030;-77
2023/04/03 01:12:43;;;;;;;4.95;2.47;;;8.10;52.40;;;;;;5016710;28;20029;-77
2023/04/03 01:15:16;;;;;;;4.63;2.80;;;8.10;52.50;;;;;;5005231;28;20038;-77
2023/04/03 01:17:56;;;;;;;5.10;2.78;;;8.10;52.50;;;;;;5009052;28;20033;-76
2023/04/03 01:20:40;;;;;;;4.68;2.50;;;8.10;52.60;;;;;;5016637;28;20121;-77
2023/04/03 01:23:10;;;;;;;4.88;2.40;;;8.10;52.60;;;;;;5017248;28;20041;-77
2023/04/03 01:25:52;;;;;;;5.00;2.28;;;8.00;52.40;;;;;;5019490;28;20036;-77
2023/04/03 01:28:20;;;;;;;4.72;2.55;;;8.00;52.50;;;;;;5030244;28;20034;-77
2023/04/03 01:30:53;;;;;;;3.47;2.60;;;8.00;52.50;;;;;;5014623;28;20040;-77
2023/04/03 01:33:20;;;;;;;3.75;2.65;;;7.90;52.40;;;;;;5015439;28;20033;-75
2023/04/03 01:35:47;;;;;;;4.35;2.50;;;8.00;52.60;;;;;;5024639;28;20036;-78
2023/04/03 01:38:13;;;;;;;4.93;2.20;;;7.90;52.40;;;;;;5014762;28;20029;-76
2023/04/03 01:40:39;;;;;;;5.28;2.80;;;7.90;52.40;;;;;;5009032;28;20377;-76
2023/04/03 01:43:05;;;;;;;5.35;2.28;;;7.90;52.40;;;;;;5013912;28;20033;-76
2023/04/03 01:45:31;;;;;;;3.67;2.50;;;7.90;52.50;;;;;;4998750;28;20171;-76
2023/04/03 01:47:57;;;;;;;4.28;2.42;;;7.90;52.50;;;;;;5017962;28;20061;-76
2023/04/03 01:50:25;;;;;;;7.05;2.80;;;7.90;52.50;;;;;;5019163;28;20175;-75
2023/04/03 01:52:51;;;;;;;4.35;2.28;;;7.90;52.50;;;;;;5020494;28;20034;-75
2023/04/03 01:55:17;;;;;;;4.18;2.13;;;7.80;52.40;;;;;;5017130;28;20524;-75
2023/04/03 01:57:43;;;;;;;4.80;2.67;;;7.80;52.40;;;;;;5017595;28;20127;-75
2023/04/03 02:00:10;;;;;;;5.35;2.80;;;7.80;52.40;;;;;;5013745;28;20061;-76
2023/04/03 02:02:41;;;;;;;8.27;3.95;;;7.80;52.40;;;;;;5020500;28;20623;-76
2023/04/03 02:05:08;;;;;;;6.88;2.42;;;7.70;52.20;;;;;;5019378;28;20116;-76
2023/04/03 02:07:34;;;;;;;4.50;2.58;;;7.70;52.20;;;;;;5013401;28;20037;-77
2023/04/03 02:10:02;;;;;;;3.80;3.10;;;7.70;52.30;;;;;;5019893;28;20033;-76
2023/04/03 02:12:28;;;;;;;5.18;2.72;;;7.70;52.30;;;;;;5023670;28;20037;-75
2023/04/03 02:14:54;;;;;;;6.03;2.70;;;7.70;52.30;;;;;;5023419;28;20378;-75
2023/04/03 02:17:20;;;;;;;4.47;2.63;;;7.70;53.00;;;;;;5024977;28;20033;-76
2023/04/03 02:19:46;;;;;;;5.75;2.45;;;7.60;52.20;;;;;;5022703;28;20072;-77
2023/04/03 02:22:11;;;;;;;3.33;2.22;;;7.60;52.20;;;;;;5019952;28;20053;-77
2023/04/03 02:24:38;;;;;;;6.35;2.53;;;7.60;52.30;;;;;;5020567;28;20087;-77
2023/04/03 02:27:04;;;;;;;4.45;2.70;;;7.60;52.30;;;;;;5005205;28;20054;-76
2023/04/03 02:29:30;;;;;;;3.83;2.60;;;7.50;52.20;;;;;;5021594;28;20034;-77
2023/04/03 02:31:56;;;;;;;3.55;2.78;;;7.50;52.20;;;;;;5018465;28;20037;-76
2023/04/03 02:34:23;;;;;;;4.57;2.80;;;7.50;52.20;;;;;;5019609;28;20049;-76
2023/04/03 02:36:50;;;;;;;6.28;2.50;;;7.40;52.10;;;;;;5021485;28;20022;-77
2023/04/03 02:39:17;;;;;;;3.25;2.47;;;7.30;52.00;;;;;;5021090;28;20029;-76
2023/04/03 02:41:45;;;;;;;8.45;3.22;;;7.30;52.10;;;;;;5022440;28;20600;-77
2023/04/03 02:44:18;;;;;;;4.05;2.83;;;7.30;52.10;;;;;;5022565;28;20120;-76
2023/04/03 02:46:44;;;;;;;5.88;2.95;;;7.30;52.20;;;;;;5017804;28;20056;-76
2023/04/03 02:49:10;;;;;;;5.10;2.67;;;7.20;52.10;;;;;;5021643;28;20021;-76
2023/04/03 02:51:36;;;;;;;3.70;2.70;;;7.20;52.10;;;;;;5023782;28;20038;-76
2023/04/03 02:54:03;;;;;;;3.22;2.35;;;7.20;52.10;;;;;;5024282;28;20046;-76
2023/04/03 02:56:32;;;;;;;8.05;2.88;;;7.10;52.00;;;;;;5018234;28;20583;-76
2023/04/03 02:58:58;;;;;;;5.40;2.83;;;7.10;52.00;;;;;;5018897;28;20034;-76
2023/04/03 03:01:28;;;;;;;5.88;2.72;;;7.10;52.10;;;;;;5013281;28;20046;-76
2023/04/03 03:03:54;;;;;;;5.13;2.72;;;7.00;52.00;;;;;;5021216;28;20730;-76
2023/04/03 03:06:20;;;;;;;4.82;2.35;;;7.00;52.00;;;;;;5022108;28;20022;-76
2023/04/03 03:08:46;;;;;;;3.50;2.10;;;7.00;52.00;;;;;;5019382;28;20106;-77
2023/04/03 03:11:12;;;;;;;4.20;2.90;;;7.00;52.10;;;;;;5026529;28;20033;-76
2023/04/03 03:13:38;;;;;;;8.15;3.08;;;6.90;51.90;;;;;;5025327;28;20655;-77
2023/04/03 03:16:05;;;;;;;4.25;2.90;;;6.90;51.90;;;;;;5026231;28;20168;-78
2023/04/03 03:18:32;;;;;;;4.40;2.60;;;6.90;52.00;;;;;;5028382;28;20433;-77
2023/04/03 03:20:59;;;;;;;5.15;3.13;;;6.80;51.80;;;;;;5026384;28;20117;-77
2023/04/03 03:23:28;;;;;;;4.25;2.58;;;6.80;51.90;;;;;;5028020;28;20037;-77
2023/04/03 03:26:00;;;;;;;4.15;2.95;;;6.80;52.00;;;;;;5025579;28;20037;-76
2023/04/03 03:28:26;;;;;;;3.83;3.42;;;6.70;51.90;;;;;;5026792;28;20106;-76
2023/04/03 03:30:52;;;;;;;7.82;4.20;;;6.70;51.90;;;;;;5025241;28;20539;-76
2023/04/03 03:33:20;;;;;;;6.32;2.38;;;6.60;51.80;;;;;;5025344;28;20512;-77
2023/04/03 03:35:45;;;;;;;3.38;2.40;;;6.60;51.90;;;;;;5017760;28;20063;-76
2023/04/03 03:38:12;;;;;;;3.75;2.72;;;6.60;51.90;;;;;;5025872;28;20069;-77
2023/04/03 03:40:38;;;;;;;5.68;2.90;;;6.50;51.80;;;;;;5027088;28;20029;-77
2023/04/03 03:43:04;;;;;;;5.05;2.50;;;6.50;51.90;;;;;;5025256;28;20052;-76
2023/04/03 03:45:31;;;;;;;2.40;2.20;;;6.50;51.90;;;;;;5026747;28;20615;-76
2023/04/03 03:47:57;;;;;;;4.88;2.58;;;6.50;51.90;;;;;;5024757;28;20285;-76
2023/04/03 03:50:24;;;;;;;6.63;2.80;;;6.50;52.00;;;;;;5018205;28;20028;-77
2023/04/03 03:52:50;;;;;;;5.20;2.95;;;6.50;52.10;;;;;;5024923;28;20063;-77
2023/04/03 03:55:17;;;;;;;5.95;3.60;;;6.40;51.90;;;;;;5025673;28;20044;-76
2023/04/03 03:57:44;;;;;;;4.35;2.10;;;6.50;52.10;;;;;;5026185;28;20037;-78
2023/04/03 04:00:11;;;;;;;5.30;3.00;;;6.40;51.90;;;;;;5013984;28;20057;-78
2023/04/03 04:02:49;;;;;;;3.90;2.47;;;6.40;51.90;;;;;;5007570;28;20134;-76
2023/04/03 04:05:19;;;;;;;4.15;2.53;;;6.40;51.90;;;;;;5009944;28;20041;-76
2023/04/03 04:07:46;;;;;;;5.65;2.83;;;6.30;51.80;;;;;;5012913;28;20018;-76
2023/04/03 04:10:13;;;;;;;3.95;2.85;;;6.30;51.90;;;;;;5018349;28;20103;-76
2023/04/03 04:12:40;;;;;;;4.88;3.67;;;6.30;51.90;;;;;;5025675;28;20079;-76
2023/04/03 04:15:06;;;;;;;5.43;3.10;;;6.30;52.50;;;;;;5019988;28;20081;-76
2023/04/03 04:17:34;;;;;;;4.93;3.33;;;6.20;51.80;;;;;;5023613;28;20536;-77
2023/04/03 04:20:04;;;;;;;5.88;3.13;;;6.20;51.90;;;;;;5024264;28;20021;-76
2023/04/03 04:22:31;;;;;;;5.03;3.05;;;6.20;51.90;;;;;;5024156;28;20041;-76
2023/04/03 04:24:57;;;;;;;3.92;2.20;;;6.20;52.00;;;;;;5024332;28;20039;-75
2023/04/03 04:27:22;;;;;;;4.40;2.80;;;6.10;51.80;;;;;;5024353;28;20131;-75
2023/04/03 04:29:48;;;;;;;3.72;2.60;;;6.10;51.90;;;;;;5023454;28;20017;-75
2023/04/03 04:32:16;;;;;;;7.78;3.53;;;6.10;52.00;;;;;;5025901;28;20069;-75
2023/04/03 04:34:42;;;;;;;5.63;3.10;;;6.10;52.00;;;;;;5019175;28;20389;-76
2023/04/03 04:37:08;;;;;;;5.68;2.75;;;6.10;52.10;;;;;;5024655;28;20065;-76
2023/04/03 04:39:35;;;;;;;4.20;2.65;;;6.00;51.90;;;;;;5023100;28;20547;-77
2023/04/03 04:42:01;;;;;;;6.28;3.55;;;6.00;52.00;;;;;;5016445;28;20041;-75
2023/04/03 04:44:30;;;;;;;5.00;3.35;;;6.00;52.00;;;;;;5015465;28;20030;-75
2023/04/03 04:46:56;;;;;;;4.97;2.50;;;6.00;52.00;;;;;;5010706;28;20053;-75
2023/04/03 04:49:22;;;;;;;6.35;2.72;;;6.00;52.10;;;;;;4994813;28;20033;-75
2023/04/03 04:51:49;;;;;;;5.63;2.42;;;6.00;52.00;;;;;;5012563;28;20037;-75
2023/04/03 04:54:17;;;;;;;2.78;2.38;;;6.00;52.00;;;;;;5019658;28;20128;-75
2023/04/03 04:56:46;;;;;;;5.43;2.90;;;6.00;52.00;;;;;;5021752;28;20073;-75
2023/04/03 04:59:12;;;;;;;3.95;2.50;;;6.00;52.10;;;;;;5013603;28;20454;-76
2023/04/03 05:01:38;;;;;;;5.53;2.60;;;6.00;52.10;;;;;;5016338;28;20026;-76
2023/04/03 05:04:09;;;;;;;3.60;2.20;;;6.00;52.20;;;;;;5015028;28;20037;-75
2023/04/03 05:06:36;;;;;;;3.85;2.63;;;5.90;52.10;;;;;;5022449;28;20116;-76
2023/04/03 05:09:05;;;;;;;6.05;2.38;;;5.90;52.10;;;;;;5010384;28;20038;-76
2023/04/03 05:11:33;;;;;;;4.90;2.45;;;5.90;52.10;;;;;;5003858;28;20059;-76
2023/04/03 05:13:59;;;;;;;6.32;2.60;;;5.90;52.10;;;;;;5011618;28;20462;-75
2023/04/03 05:16:26;;;;;;;4.65;2.72;;;5.90;52.20;;;;;;5009840;28;20033;-75
2023/04/03 05:18:53;;;;;;;5.18;3.40;;;5.90;52.20;;;;;;5012837;28;20030;-76
2023/04/03 05:21:23;;;;;;;6.20;2.70;;;5.90;52.30;;;;;;5010312;28;20033;-76
2023/04/03 05:23:51;;;;;;;5.32;3.30;;;5.80;52.10;;;;;;5017127;28;20633;-76
2023/04/03 05:26:17;;;;;;;8.80;3.17;;;5.80;52.10;;;;;;5016980;28;20034;-76
2023/04/03 05:28:45;;;;;;;5.97;3.05;;;5.80;52.20;;;;;;5015820;28;20176;-77
2023/04/03 05:31:13;;;;;;;4.88;2.65;;;5.80;52.20;;;;;;5012899;28;20045;-77
2023/04/03 05:33:39;;;;;;;6.05;2.70;;;5.80;52.30;;;;;;5013836;28;20041;-77
2023/04/03 05:36:08;;;;;;;5.97;3.53;;;5.70;52.10;;;;;;5015725;28;20037;-78
2023/04/03 05:38:40;;;;;;;5.43;2.95;;;5.70;52.20;;;;;;5014615;28;20029;-78
2023/04/03 05:41:06;;;;;;;5.93;3.00;;;5.70;52.20;;;;;;5014062;28;20076;-77
2023/04/03 05:43:34;;;;;;;4.13;3.67;;;5.70;52.20;;;;;;5002196;28;20053;-78
2023/04/03 05:46:01;;;;;;;6.60;3.38;;;5.60;52.10;;;;;;5011111;28;20459;-79
2023/04/03 05:48:28;;;;;;;7.68;3.60;;;5.60;52.10;;;;;;4996650;28;20042;-77
2023/04/03 05:50:55;;;;;;;6.22;2.95;;;5.60;52.10;;;;;;4997073;28;20046;-77
2023/04/03 05:53:29;;;;;;;4.43;3.15;;;5.60;52.10;;;;;;5009561;28;20038;-79
2023/04/03 05:55:58;;;;;;;7.07;3.22;;;5.60;52.10;;;;;;4999563;28;20518;-76
2023/04/03 05:58:24;;;;;;;6.28;3.13;;;5.60;52.10;;;;;;4993123;28;20538;-76
2023/04/03 06:00:52;;;;;;;4.90;3.22;;;5.60;52.10;;;;;;4992812;28;20133;-78
2023/04/03 06:03:18;;;;;;;6.53;4.15;;;5.60;52.00;;;;;;4990522;28;20205;-77
2023/04/03 06:05:46;;;;;;;6.15;3.17;;;5.60;52.10;;;;;;5020765;28;20129;-76
2023/04/03 06:08:12;;;;;;;7.20;3.47;;;5.60;52.40;;;;;;4990719;28;20443;-77
2023/04/03 06:10:38;;;;;;;7.45;3.58;;;5.60;52.50;;;;;;5000502;28;20075;-77
2023/04/03 06:13:05;;;;;;;5.28;3.60;;;5.70;52.70;;;;;;4988826;28;20037;-78
2023/04/03 06:15:31;;;;;;;6.18;3.85;;;5.70;52.60;;;;;;4997179;28;20513;-75
2023/04/03 06:17:57;;;;;;;5.18;3.03;;;5.70;52.60;;;;;;4999283;28;20548;-75
2023/04/03 06:20:23;;;;;;;9.73;3.80;;;5.80;52.80;;;;;;5010450;28;20493;-76
2023/04/03 06:22:50;;;;;;;5.30;3.47;;;5.80;52.80;;;;;;4999449;28;20092;-77
2023/04/03 06:25:18;;;;;;;5.43;3.58;;;5.90;53.00;;;;;;5016687;28;20113;-77
2023/04/03 06:27:45;;;;;;;4.65;3.72;;;6.00;53.00;;;;;;5011283;28;20084;-77
2023/04/03 06:30:11;;;;;;;6.03;4.50;;;6.10;53.20;;;;;;4999363;28;20223;-78
2023/04/03 06:32:38;;;;;;;6.28;3.70;;;6.30;53.80;;;;;;5014963;28;20572;-75
2023/04/03 06:35:05;;;;;;;10.52;4.75;;;6.50;54.30;;;;;;5014133;28;20528;-76
2023/04/03 06:37:32;;;;;;;8.27;5.70;;;6.90;55.40;;;;;;5015281;28;20060;-76
2023/04/03 06:40:00;;;;;;;6.60;3.83;;;7.50;56.70;;;;;;5017912;28;20039;-74
2023/04/03 06:42:26;;;;;;;5.15;3.70;;;8.10;57.40;;;;;;4995391;28;20995;-76
2023/04/03 06:45:00;;;;;;;8.55;3.50;;;8.80;58.00;;;;;;4999777;28;20079;-76
2023/04/03 06:47:27;;;;;;;4.03;2.47;;;9.50;58.30;;;;;;5030566;28;20050;-76
2023/04/03 06:49:53;;;;;;;7.88;3.22;;;10.20;58.70;;;;;;5016769;28;20060;-77
2023/04/03 06:52:18;;;;;;;6.60;3.75;;;10.80;58.90;;;;;;5028556;28;20037;-76
2023/04/03 06:54:44;;;;;;;6.00;3.05;;;11.40;59.10;;;;;;5023413;28;20087;-74
2023/04/03 06:57:10;;;;;;;5.13;2.25;;;11.90;59.10;;;;;;5023229;28;20041;-74
2023/04/03 06:59:36;;;;;;;4.40;2.90;;;12.40;59.10;;;;;;5004900;28;20337;-74
2023/04/03 07:02:04;;;;;;;4.68;2.30;;;12.90;59.20;;;;;;5012245;28;20519;-75
2023/04/03 07:04:29;;;;;;;3.70;2.75;;;13.20;59.00;;;;;;5024296;28;20033;-73
2023/04/03 07:06:55;;;;;;;4.28;2.70;;;13.40;58.80;;;;;;5009210;28;20413;-74
2023/04/03 07:09:21;;;;;;;7.68;2.70;;;13.60;58.70;;;;;;4993074;28;20033;-73
2023/04/03 07:11:47;;;;;;;5.57;2.65;;;13.80;58.70;;;;;;5017606;28;20034;-74
2023/04/03 07:14:13;;;;;;;3.40;2.40;;;13.90;58.50;;;;;;5010676;28;20453;-75
2023/04/03 07:16:39;;;;;;;5.35;2.05;;;14.00;58.50;;;;;;5014577;28;20053;-74
2023/04/03 07:19:05;;;;;;;5.53;2.53;;;14.10;58.50;;;;;;5014120;28;20128;-75
2023/04/03 07:21:31;;;;;;;3.22;2.05;;;14.10;58.30;;;;;;4982452;28;20552;-75
2023/04/03 07:23:57;;;;;;;3.97;1.90;;;14.10;58.20;;;;;;5001481;28;20080;-74
2023/04/03 07:26:23;;;;;;;3.55;2.63;;;14.20;58.30;;;;;;5015091;28;20124;-75
2023/04/03 07:28:49;;;;;;;4.65;2.42;;;14.20;58.20;;;;;;5016196;28;20149;-74
2023/04/03 07:31:16;;;;;;;6.97;3.10;;;14.30;58.30;;;;;;5017741;28;20594;-77
2023/04/03 07:33:43;;;;;;;4.07;2.78;;;14.20;57.80;;;;;;5013988;28;20091;-76
2023/04/03 07:36:16;;;;;;;5.30;2.40;;;14.10;57.30;;;;;;5012447;28;20541;-76
2023/04/03 07:38:42;;;;;;;5.40;2.60;;;14.00;57.00;;;;;;5016133;28;20393;-76
2023/04/03 07:41:13;;;;;;;3.50;1.98;;;13.80;56.70;;;;;;4999170;28;20033;-76
2023/04/03 07:43:40;;;;;;;3.72;2.10;;;13.60;56.50;;;;;;5011651;28;20045;-75
2023/04/03 07:46:06;;;;;;;7.13;2.50;;;13.40;56.40;;;;;;5011030;28;20033;-77
2023/04/03 07:48:32;;;;;;;5.57;2.10;;;13.20;56.30;;;;;;5000551;28;20259;-75
2023/04/03 07:51:04;;;;;;;4.90;2.35;;;13.10;56.40;;;;;;5018263;28;20030;-75
2023/04/03 07:53:30;;;;;;;5.65;2.33;;;13.10;56.60;;;;;;5014806;28;20781;-74
2023/04/03 07:55:57;;;;;;;3.50;2.05;;;13.10;56.60;;;;;;4966492;28;20053;-75
2023/04/03 07:58:24;;;;;;;8.95;3.25;;;13.10;56.40;;;;;;5012943;28;20068;-75
2023/04/03 08:00:50;;;;;;;5.63;2.63;;;13.10;56.10;;;;;;5015834;28;20386;-75
2023/04/03 08:03:16;;;;;;;6.30;3.17;;;13.10;55.90;;;;;;5017675;28;20124;-75
2023/04/03 08:05:44;;;;;;;7.32;2.33;;;13.10;55.80;;;;;;4977822;28;20038;-75
2023/04/03 08:08:13;;;;;;;4.93;2.40;;;13.00;56.10;;;;;;4957529;28;20077;-77
2023/04/03 08:10:39;;;;;;;6.72;3.00;;;12.90;55.40;;;;;;5015208;28;20029;-74
2023/04/03 08:13:06;;;;;;;3.97;2.33;;;12.80;55.30;;;;;;5010809;28;20638;-75
2023/04/03 08:15:33;;;;;;;4.47;2.45;;;12.70;55.10;;;;;;5015503;28;20392;-76
2023/04/03 08:18:00;;;;;;;4.47;1.70;;;12.60;55.00;;;;;;5011274;28;20033;-75
2023/04/03 08:20:27;;;;;;;3.40;1.77;;;12.60;55.10;;;;;;5015132;28;20818;-75
2023/04/03 08:22:53;;;;;;;6.80;2.03;;;12.50;55.10;;;;;;5006050;28;20042;-76
2023/04/03 08:25:19;;;;;;;5.30;2.67;;;12.40;55.10;;;;;;5002362;28;20037;-76
2023/04/03 08:27:45;;;;;;;5.40;2.05;;;12.30;55.00;;;;;;5020205;28;20040;-76
2023/04/03 08:30:12;;;;;;;3.60;2.60;;;12.30;55.10;;;;;;5008844;28;20072;-75
2023/04/03 08:32:38;;;;;;;4.22;2.08;;;12.30;55.20;;;;;;5015586;28;20030;-75
2023/04/03 08:35:05;;;;;;;7.00;2.22;;;12.20;55.10;;;;;;4992610;28;20413;-75
2023/04/03 08:37:31;;;;;;;6.38;2.65;;;12.20;55.10;;;;;;4995347;28;20083;-76
2023/04/03 08:39:58;;;;;;;5.53;2.40;;;12.10;55.00;;;;;;5015885;28;20033;-78
2023/04/03 08:42:55;;;;;;;7.07;2.92;;;12.10;55.00;;;;;;5015423;28;20050;-77
2023/04/03 08:45:50;;;;;;;6.03;2.17;;;12.10;55.20;;;;;;4993344;28;20157;-78
2023/04/03 08:48:22;;;;;;;2.85;1.65;;;12.10;55.20;;;;;;5001322;28;20675;-79
2023/04/03 08:50:53;;;;;;;6.50;2.40;;;12.10;55.30;;;;;;5005515;28;20219;-76
2023/04/03 08:53:22;;;;;;;5.75;1.85;;;12.00;55.20;;;;;;4992858;28;20038;-77
2023/04/03 08:55:53;;;;;;;7.32;1.80;;;12.00;55.20;;;;;;4987340;28;20029;-77
2023/04/03 08:58:32;;;;;;;4.75;2.10;;;12.00;55.30;;;;;;5012283;28;20038;-78
2023/04/03 09:01:04;;;;;;;3.85;1.90;;;12.00;55.40;;;;;;5012310;28;20105;-78
2023/04/03 09:03:33;;;;;;;5.22;2.30;;;12.00;55.50;;;;;;5015972;28;20407;-78
2023/04/03 09:06:13;;;;;;;3.97;2.00;;;12.00;55.60;;;;;;4998266;28;20033;-78
2023/04/03 09:08:57;;;;;;;3.60;2.17;;;12.10;55.90;;;;;;5006409;28;20378;-77
2023/04/03 09:11:37;;;;;;;3.20;1.50;;;12.10;55.80;;;;;;5017683;28;20037;-76
2023/04/03 09:14:25;;;;;;;3.10;2.00;;;12.00;55.60;;;;;;5016540;28;20107;-77
2023/04/03 09:16:57;;;;;;;4.57;1.80;;;12.10;55.90;;;;;;5018210;28;20550;-78
2023/04/03 09:19:47;;;;;;;5.05;1.70;;;12.10;55.80;;;;;;5007052;28;20397;-77
2023/04/03 09:22:18;;;;;;;4.55;1.77;;;12.20;56.10;;;;;;4993123;28;20045;-77
2023/04/03 09:24:50;;;;;;;4.72;1.83;;;12.20;56.10;;;;;;4998643;28;20124;-76
2023/04/03 09:27:16;;;;;;;4.85;1.60;;;12.30;56.30;;;;;;5014119;28;20087;-79
2023/04/03 09:29:45;;;;;;;4.95;2.10;;;12.30;56.20;;;;;;5005325;28;20072;-76
2023/04/03 09:32:35;;;;;;;5.22;1.73;;;12.30;56.20;;;;;;4997765;28;20041;-76
2023/04/03 09:35:11;;;;;;;2.28;1.40;;;12.30;56.20;;;;;;5010090;28;20040;-77
2023/04/03 09:37:40;;;;;;;5.07;1.70;;;12.30;56.20;;;;;;5014078;28;20441;-77
2023/04/03 09:40:26;;;;;;;2.33;1.70;;;12.40;56.40;;;;;;5006823;28;20477;-77
2023/04/03 09:43:00;;;;;;;5.15;1.67;;;12.40;56.50;;;;;;5002946;28;20425;-77
2023/04/03 09:45:32;;;;;;;3.03;1.55;;;12.40;56.30;;;;;;5011143;28;20485;-75
2023/04/03 09:48:25;;;;;;;4.57;1.73;;;12.50;56.40;;;;;;5004226;28;20073;-75
2023/04/03 09:51:04;;;;;;;5.97;2.15;;;12.50;56.40;;;;;;5014839;28;20045;-75
2023/04/03 09:53:43;;;;;;;4.07;1.98;;;12.50;56.20;;;;;;5012577;28;20075;-76
2023/04/03 09:56:21;;;;;;;4.80;2.17;;;12.60;56.30;;;;;;5024329;28;20471;-76
2023/04/03 09:58:52;;;;;;;5.78;1.88;;;12.60;56.20;;;;;;5017882;28;20575;-76
2023/04/03 10:01:30;;;;;;;3.83;1.60;;;12.60;56.10;;;;;;5013568;28;20044;-77
2023/04/03 10:04:07;;;;;;;3.72;2.13;;;12.60;56.00;;;;;;5030141;28;20042;-78
2023/04/03 10:06:36;;;;;;;4.30;2.00;;;12.70;56.20;;;;;;5013970;28;20315;-77
2023/04/03 10:09:20;;;;;;;5.22;1.95;;;12.70;56.20;;;;;;5012267;28;20065;-77
2023/04/03 10:12:12;;;;;;;3.55;1.67;;;12.80;56.30;;;;;;5015730;28;20040;-77
2023/04/03 10:14:55;;;;;;;3.40;2.08;;;12.90;56.50;;;;;;5019672;28;20041;-77
2023/04/03 10:17:34;;;;;;;5.28;2.33;;;12.90;56.40;;;;;;5017463;28;20481;-77
2023/04/03 10:20:21;;;;;;;6.13;2.20;;;13.00;56.40;;;;;;5014133;28;20040;-77
2023/04/03 10:23:39;;;;;;;6.35;2.85;;;13.10;56.30;;;;;;5015576;28;20489;-78
2023/04/03 10:26:25;;;;;;;5.45;2.35;;;13.30;56.40;;;;;;4994106;28;20508;-77
2023/04/03 10:29:13;;;;;;;3.40;1.90;;;13.50;56.40;;;;;;5013675;28;20111;-76
2023/04/03 10:32:18;;;;;;;3.08;1.88;;;13.70;56.40;;;;;;5012369;28;20600;-77
2023/04/03 10:34:47;;;;;;;4.35;2.08;;;14.00;56.30;;;;;;5022272;28;20522;-78
2023/04/03 10:37:25;;;;;;;3.22;2.20;;;14.20;56.20;;;;;;5009894;28;20117;-76
2023/04/03 10:40:02;;;;;;;5.65;2.40;;;14.40;56.10;;;;;;5012075;28;20121;-77
2023/04/03 10:42:46;;;;;;;4.28;2.08;;;14.60;56.70;;;;;;5013297;28;20133;-76
2023/04/03 10:45:55;;;;;;;4.30;1.55;;;14.70;55.90;;;;;;5015169;28;20036;-77
2023/04/03 10:48:40;;;;;;;3.97;1.92;;;14.90;55.90;;;;;;4955467;28;20091;-75
2023/04/03 10:51:15;;;;;;;3.97;2.25;;;15.00;56.00;;;;;;4959844;28;20031;-75
2023/04/03 10:54:11;;;;;;;3.17;1.98;;;15.20;56.10;;;;;;5004517;28;20051;-75
2023/04/03 10:56:48;;;;;;;10.73;4.10;;;15.40;56.30;;;;;;5008289;28;20040;-75
2023/04/03 10:59:33;;;;;;;10.07;3.00;;;15.60;56.40;;;;;;5002445;28;20077;-74
2023/04/03 11:02:12;;;;;;;5.30;2.35;;;15.90;56.60;;;;;;5012436;28;20033;-75
2023/04/03 11:04:42;;;;;;;6.72;2.63;;;16.20;56.70;;;;;;5018831;28;20120;-75
2023/04/03 11:07:16;;;;;;;5.20;2.75;;;16.40;56.50;;;;;;5022122;28;20033;-75
2023/04/03 11:09:46;;;;;;;8.40;3.20;;;16.60;56.20;;;;;;5018208;28;20590;-76
2023/04/03 11:12:23;;;;;;;5.63;3.00;;;16.70;55.90;;;;;;5010026;28;20056;-74
2023/04/03 11:14:54;;;;;;;4.65;2.58;;;16.80;55.60;;;;;;5011406;28;20081;-76
2023/04/03 11:17:21;;;;;;;4.70;2.20;;;16.80;55.30;;;;;;5013562;28;20457;-76
2023/04/03 11:20:14;;;;;;;4.20;2.08;;;16.80;55.00;;;;;;5012505;28;20032;-76
2023/04/03 11:22:43;;;;;;;8.30;3.73;;;16.80;55.20;;;;;;5015183;28;20038;-75
2023/04/03 11:25:11;;;;;;;4.70;3.10;;;16.80;54.50;;;;;;5018095;28;20278;-75
2023/04/03 11:28:01;;;;;;;5.05;2.20;;;16.80;54.30;;;;;;5017082;28;20033;-76
2023/04/03 11:31:00;;;;;;;5.65;2.97;;;16.80;54.10;;;;;;5014799;28;20029;-77
2023/04/03 11:33:45;;;;;;;4.82;2.88;;;16.70;53.80;;;;;;5009332;28;20459;-77
2023/04/03 11:36:44;;;;;;;3.47;2.20;;;16.60;53.60;;;;;;5012388;28;20029;-76
2023/04/03 11:39:34;;;;;;;4.57;2.72;;;16.60;53.60;;;;;;5012822;28;20052;-78
2023/04/03 11:42:30;;;;;;;6.10;2.17;;;16.60;53.60;;;;;;5015830;28;20736;-76
2023/04/03 11:45:27;;;;;;;3.70;2.05;;;16.50;53.30;;;;;;5014123;28;20167;-76
2023/04/03 11:47:55;;;;;;;5.72;2.63;;;16.50;53.30;;;;;;5012585;28;20176;-77
2023/04/03 11:50:34;;;;;;;5.32;2.30;;;16.50;53.40;;;;;;5013665;28;20061;-77
2023/04/03 11:53:02;;;;;;;4.38;2.13;;;16.50;53.50;;;;;;5013404;28;20066;-77
2023/04/03 11:55:35;;;;;;;5.00;2.22;;;16.40;53.50;;;;;;5011297;28;20033;-76
2023/04/03 11:58:13;;;;;;;5.22;2.25;;;16.40;53.40;;;;;;5010581;28;20045;-77
2023/04/03 12:00:51;;;;;;;5.05;3.00;;;16.30;53.00;;;;;;4993274;28;20406;-76
2023/04/03 12:03:26;;;;;;;3.88;2.05;;;16.30;52.90;;;;;;5012246;28;20037;-76
2023/04/03 12:06:04;;;;;;;5.38;2.35;;;16.40;53.10;;;;;;5011202;28;20261;-76
2023/04/03 12:08:30;;;;;;;3.28;2.13;;;16.40;53.10;;;;;;5010898;28;20049;-76
2023/04/03 12:11:21;;;;;;;3.53;2.58;;;16.30;53.00;;;;;;4994238;28;20128;-75
2023/04/03 12:13:54;;;;;;;4.32;2.13;;;16.30;52.50;;;;;;5013893;28;20022;-75
2023/04/03 12:16:39;;;;;;;4.88;2.30;;;16.30;52.50;;;;;;5003658;28;20037;-75
2023/04/03 12:19:31;;;;;;;3.35;2.20;;;16.30;52.30;;;;;;5018206;28;20132;-75
2023/04/03 12:21:58;;;;;;;4.50;2.40;;;16.30;52.30;;;;;;5032336;28;20033;-75
2023/04/03 12:24:29;;;;;;;2.92;2.22;;;16.30;52.40;;;;;;5023594;28;20037;-75
2023/04/03 12:27:20;;;;;;;4.22;2.40;;;16.40;52.60;;;;;;5034448;28;20049;-75
2023/04/03 12:29:51;;;;;;;3.20;1.95;;;16.30;52.40;;;;;;5013885;28;20045;-76
2023/04/03 12:32:29;;;;;;;5.53;2.92;;;16.30;52.50;;;;;;5013048;28;20048;-75
2023/04/03 12:35:13;;;;;;;3.65;2.22;;;16.30;52.70;;;;;;5023916;28;20099;-76
2023/04/03 12:38:16;;;;;;;4.25;2.58;;;16.30;52.70;;;;;;4991545;28;20497;-76
2023/04/03 12:40:47;;;;;;;;;;;16.30;52.50;;;;;;5014289;28;20407;-75
2023/04/03 12:43:32;;;;;;;2.78;2.28;;;16.40;52.80;;;;;;4990937;28;20380;-75
2023/04/03 12:46:16;;;;;;;4.45;2.45;;;16.40;52.80;;;;;;5013401;28;20112;-76
2023/04/03 12:48:51;;;;;;;4.28;2.35;;;16.50;52.70;;;;;;5012269;28;20542;-74
2023/04/03 12:51:29;;;;;;;3.72;2.70;;;16.50;52.60;;;;;;5015872;28;20409;-75
2023/04/03 12:54:04;;;;;;;3.80;2.80;;;16.60;52.60;;;;;;5011320;28;20034;-77
2023/04/03 12:56:32;;;;;;;4.18;2.58;;;16.60;52.20;;;;;;5007223;28;20029;-76
2023/04/03 12:59:16;;;;;;;3.80;2.47;;;16.70;52.20;;;;;;5001128;28;20095;-76
2023/04/03 13:01:44;;;;;;;5.85;3.00;;;16.70;52.00;;;;;;5007637;28;20034;-77
2023/04/03 13:04:13;;;;;;;7.28;2.67;;;16.80;52.20;;;;;;5007148;28;20049;-77
2023/04/03 13:06:43;;;;;;;2.85;2.40;;;16.90;52.10;;;;;;5008647;28;20069;-78
2023/04/03 13:09:27;;;;;;;3.83;2.67;;;17.00;52.10;;;;;;5007065;28;20571;-78
2023/04/03 13:12:11;;;;;;;4.80;2.53;;;17.10;52.00;;;;;;5011474;28;20393;-78
2023/04/03 13:14:37;;;;;;;4.38;2.70;;;17.30;52.10;;;;;;5011944;28;20339;-77